Řízení letového provozu České republiky
Letiste: LKMT Aktualizace: 16.12.2017 22:08:11  UTC
 METAR LKMT 16.12. 22:00 ...
METAR LKMT 162200Z 20006KT CAVOK 01/M02 Q1012 NOSIG RMK REG QNH 1008=
 TAF LKMT 16.12. 17:00 ...
TAF LKMT 161700Z 1618/1800 21004KT 9999 BKN033      TEMPO 1618/1700 SCT033      TEMPO 1701/1715 5000 -SN BKN012      BECMG 1714/1716 VRB02KT=